Time;durP1;ratioP1;P1;durP2;ratioP2;P2;SDS_P1;SDS_P2;PMS_P1;PMS_P2;Temp;Humidity;BMP_temperature;BMP_pressure;BME280_temperature;BME280_humidity;BME280_pressure;Samples;Min_cycle;Max_cycle;Signal;HPM_P1;HPM_P2
2023/06/20 00:00:08;;;;;;;14.80;13.10;;;;;;;18.54;69.48;99290.05;107276;1261;60001;-40
2023/06/20 00:02:38;;;;;;;14.90;12.90;;;;;;;18.53;69.27;99288.18;107085;1262;71800;-40
2023/06/20 00:05:06;;;;;;;18.40;14.20;;;;;;;18.52;69.02;99287.24;107133;1260;66780;-40
2023/06/20 00:07:34;;;;;;;15.50;13.80;;;;;;;18.50;69.08;99289.53;107107;1260;71751;-40
2023/06/20 00:10:02;;;;;;;16.40;14.40;;;;;;;18.46;69.04;99284.48;107202;1258;60119;-39
2023/06/20 00:12:29;;;;;;;17.90;14.60;;;;;;;18.43;69.12;99283.99;107099;1258;60062;-40
2023/06/20 00:14:57;;;;;;;16.00;14.30;;;;;;;18.32;69.18;99282.58;107050;1258;71746;-40
2023/06/20 00:17:25;;;;;;;17.30;14.10;;;;;;;18.20;69.44;99280.00;107057;1260;66279;-40
2023/06/20 00:19:53;;;;;;;25.40;13.60;;;;;;;18.16;69.46;99275.58;107079;1257;72715;-40
2023/06/20 00:22:21;;;;;;;17.20;14.00;;;;;;;18.16;69.56;99277.23;107204;1257;60102;-40
2023/06/20 00:24:49;;;;;;;20.80;17.50;;;;;;;18.14;69.87;99275.83;107247;1257;59557;-40
2023/06/20 00:27:16;;;;;;;19.30;16.00;;;;;;;18.07;70.42;99273.73;107228;1257;73054;-40
2023/06/20 00:29:44;;;;;;;17.40;15.60;;;;;;;17.92;71.02;99275.10;107250;1257;66259;-40
2023/06/20 00:32:11;;;;;;;18.10;15.90;;;;;;;17.73;71.72;99279.16;107063;1260;72067;-40
2023/06/20 00:34:39;;;;;;;14.90;13.20;;;;;;;17.58;72.16;99281.18;107168;1258;61682;-40
2023/06/20 00:37:07;;;;;;;12.30;11.00;;;;;;;17.46;72.57;99289.77;107219;1257;59705;-40
2023/06/20 00:39:35;;;;;;;12.30;11.10;;;;;;;17.19;72.71;99295.17;107293;1257;73027;-40
2023/06/20 00:42:04;;;;;;;13.40;12.00;;;;;;;16.96;73.66;99288.65;107256;1257;67609;-41
2023/06/20 00:44:31;;;;;;;13.00;11.60;;;;;;;16.83;74.42;99290.23;107884;1260;71412;-40
2023/06/20 00:46:59;;;;;;;15.80;12.40;;;;;;;16.80;74.77;99289.94;107270;1257;59647;-40
2023/06/20 00:49:27;;;;;;;14.10;12.60;;;;;;;16.80;75.45;99291.90;107139;1262;59618;-40
2023/06/20 00:51:54;;;;;;;14.60;13.10;;;;;;;16.78;76.06;99292.47;107257;1257;72994;-40
2023/06/20 00:54:22;;;;;;;14.80;13.10;;;;;;;16.75;76.19;99293.41;107211;1263;66638;-40
2023/06/20 00:56:49;;;;;;;15.70;13.10;;;;;;;16.71;76.48;99291.64;107009;1257;71400;-40
2023/06/20 00:59:17;;;;;;;15.50;13.50;;;;;;;16.70;76.66;99289.32;107134;1262;60375;-40
2023/06/20 01:01:45;;;;;;;16.00;13.20;;;;;;;16.75;76.82;99286.55;107208;1257;59479;-40
2023/06/20 01:04:13;;;;;;;15.40;13.90;;;;;;;16.77;76.93;99287.23;107211;1257;72101;-40
2023/06/20 01:06:46;;;;;;;16.40;14.60;;;;;;;16.76;77.23;99285.44;107239;1257;67910;-40
2023/06/20 01:09:28;;;;;;;16.20;14.50;;;;;;;16.73;77.43;99287.02;107192;1257;73127;-40
2023/06/20 01:12:14;;;;;;;19.00;14.50;;;;;;;16.75;77.63;99289.12;107178;1257;60783;-40
2023/06/20 01:14:53;;;;;;;16.10;14.50;;;;;;;16.81;77.81;99290.71;107184;1259;60248;-41
2023/06/20 01:17:31;;;;;;;15.90;14.30;;;;;;;16.82;77.96;99292.90;107206;1257;73059;-41
2023/06/20 01:20:05;;;;;;;15.60;14.00;;;;;;;16.81;78.03;99293.14;107206;1261;67888;-40
2023/06/20 01:22:57;;;;;;;16.70;14.40;;;;;;;16.75;78.24;99293.65;107148;1258;72550;-41
2023/06/20 01:25:25;;;;;;;17.20;13.20;;;;;;;16.79;78.36;99293.86;107217;1260;62066;-40
2023/06/20 01:28:18;;;;;;;16.30;14.70;;;;;;;16.85;78.38;99298.83;107255;1257;60258;-40
2023/06/20 01:30:49;;;;;;;16.30;14.30;;;;;;;16.88;78.15;99300.52;107053;1257;73962;-40
2023/06/20 01:33:19;;;;;;;16.00;14.30;;;;;;;16.89;78.21;99305.43;107152;1257;67558;-40
2023/06/20 01:35:46;;;;;;;17.00;14.10;;;;;;;16.95;77.93;99302.59;107157;1260;72738;-41
2023/06/20 01:38:14;;;;;;;14.90;13.40;;;;;;;17.06;77.45;99308.13;107009;1257;60408;-41
2023/06/20 01:40:47;;;;;;;16.80;14.40;;;;;;;17.18;76.94;99310.15;107130;1258;60390;-41
2023/06/20 01:43:14;;;;;;;18.30;15.70;;;;;;;17.24;76.39;99308.45;107088;1257;74951;-41
2023/06/20 01:45:43;;;;;;;16.90;15.20;;;;;;;17.25;75.84;99308.12;107122;1257;67643;-41
2023/06/20 01:48:10;;;;;;;16.20;13.50;;;;;;;17.27;75.77;99307.08;107176;1263;72685;-41
2023/06/20 01:50:38;;;;;;;15.20;13.60;;;;;;;17.28;75.50;99305.29;107021;1257;61692;-40
2023/06/20 01:53:06;;;;;;;16.30;13.70;;;;;;;17.24;75.70;99310.39;106990;1257;60046;-41
2023/06/20 01:55:33;;;;;;;16.50;14.20;;;;;;;17.20;76.01;99309.56;107006;1264;73968;-41
2023/06/20 01:58:01;;;;;;;16.10;14.10;;;;;;;17.16;76.26;99311.40;106923;1257;66171;-41
2023/06/20 02:00:29;;;;;;;19.20;14.80;;;;;;;17.11;76.61;99308.02;106905;1257;72804;-41
2023/06/20 02:02:58;;;;;;;16.90;14.00;;;;;;;17.15;76.60;99311.81;107119;1257;60507;-41
2023/06/20 02:05:28;;;;;;;15.90;14.20;;;;;;;17.20;76.08;99312.72;107185;1257;62351;-40
2023/06/20 02:07:56;;;;;;;15.80;14.20;;;;;;;17.21;75.76;99309.88;107187;1258;73830;-40
2023/06/20 02:10:24;;;;;;;17.40;15.00;;;;;;;17.21;75.69;99308.31;107120;1262;65848;-40
2023/06/20 02:12:54;;;;;;;17.10;15.30;;;;;;;17.25;75.68;99312.91;107068;1257;71446;-40
2023/06/20 02:15:29;;;;;;;16.10;14.40;;;;;;;17.26;75.43;99312.02;107099;1262;63706;-41
2023/06/20 02:18:07;;;;;;;16.00;14.30;;;;;;;17.32;75.30;99316.98;107180;1263;60616;-42
2023/06/20 02:20:35;;;;;;;16.20;14.60;;;;;;;17.39;75.09;99321.39;107143;1257;75943;-41
2023/06/20 02:23:07;;;;;;;16.50;14.50;;;;;;;17.42;75.20;99328.02;107300;1254;66540;-41
2023/06/20 02:25:35;;;;;;;16.60;14.80;;;;;;;17.41;75.63;99329.11;107560;1254;72657;-40
2023/06/20 02:28:06;;;;;;;16.20;14.30;;;;;;;17.40;75.44;99329.59;107415;1253;60534;-39
2023/06/20 02:30:34;;;;;;;15.90;14.30;;;;;;;17.39;75.48;99330.23;107369;1254;60431;-39
2023/06/20 02:33:01;;;;;;;16.10;14.50;;;;;;;17.40;75.54;99328.42;107403;1254;73869;-39
2023/06/20 02:35:29;;;;;;;17.60;15.10;;;;;;;17.42;75.43;99332.41;107511;1254;68635;-40
2023/06/20 02:37:57;;;;;;;17.20;15.40;;;;;;;17.42;75.34;99337.96;107268;1254;72701;-40
2023/06/20 02:40:25;;;;;;;17.10;15.40;;;;;;;17.40;75.15;99338.83;107353;1254;61721;-40
2023/06/20 02:42:52;;;;;;;17.30;14.60;;;;;;;17.41;75.03;99340.86;107551;1254;60135;-39
2023/06/20 02:45:20;;;;;;;16.60;14.90;;;;;;;17.49;75.01;99343.22;107604;1257;72613;-40
2023/06/20 02:48:16;;;;;;;18.00;16.20;;;;;;;17.56;74.81;99345.51;107386;1254;67547;-40
2023/06/20 02:50:48;;;;;;;16.70;15.10;;;;;;;17.61;74.51;99351.52;107487;1254;73133;-40
2023/06/20 02:53:45;;;;;;;16.70;14.60;;;;;;;17.60;74.55;99350.65;107518;1255;60604;-40
2023/06/20 02:56:12;;;;;;;17.20;14.30;;;;;;;17.63;74.51;99352.66;107494;1259;60112;-40
2023/06/20 02:58:45;;;;;;;16.20;13.40;;;;;;;17.66;74.61;99355.45;107468;1254;73818;-40
2023/06/20 03:01:17;;;;;;;15.60;13.70;;;;;;;17.70;74.54;99357.05;107581;1257;66257;-40
2023/06/20 03:03:45;;;;;;;17.90;14.90;;;;;;;17.74;74.56;99350.05;107392;1260;73182;-39
2023/06/20 03:06:14;;;;;;;16.40;14.70;;;;;;;17.73;74.54;99355.54;107566;1254;60875;-40
2023/06/20 03:08:44;;;;;;;15.20;13.70;;;;;;;17.69;74.58;99360.20;107466;1254;61776;-40
2023/06/20 03:11:11;;;;;;;15.20;13.60;;;;;;;17.67;74.70;99358.42;107428;1260;72709;-40
2023/06/20 03:13:40;;;;;;;17.00;13.90;;;;;;;17.67;74.92;99360.93;107374;1258;66750;-39
2023/06/20 03:16:09;;;;;;;15.50;14.00;;;;;;;17.69;75.04;99360.84;107546;1254;73882;-40
2023/06/20 03:18:38;;;;;;;15.30;13.70;;;;;;;17.68;75.32;99358.64;107234;1257;60337;-40
2023/06/20 03:21:13;;;;;;;16.80;14.00;;;;;;;17.63;75.43;99360.41;107505;1257;60167;-40
2023/06/20 03:24:00;;;;;;;15.20;12.90;;;;;;;17.60;75.74;99359.90;107416;1254;72568;-41
2023/06/20 03:26:28;;;;;;;18.70;14.30;;;;;;;17.61;75.83;99363.02;107323;1254;66060;-40
2023/06/20 03:28:57;;;;;;;15.50;14.00;;;;;;;17.64;75.89;99368.16;107480;1254;71335;-41
2023/06/20 03:31:26;;;;;;;16.30;14.70;;;;;;;17.66;76.27;99369.95;107477;1259;60431;-40
2023/06/20 03:33:54;;;;;;;16.30;14.30;;;;;;;17.65;76.33;99369.96;107470;1253;60294;-40
2023/06/20 03:36:23;;;;;;;16.70;13.80;;;;;;;17.61;76.40;99369.62;107174;1257;74064;-39
2023/06/20 03:38:52;;;;;;;;;;;;;;;17.63;76.59;99372.48;107540;1254;66287;-39
2023/06/20 03:41:21;;;;;;;18.10;13.60;;;;;;;17.69;76.97;99374.77;107417;1256;71417;-40
2023/06/20 03:43:49;;;;;;;15.80;14.20;;;;;;;17.74;76.79;99376.30;107481;1254;60076;-40
2023/06/20 03:46:16;;;;;;;17.50;14.70;;;;;;;17.79;76.72;99374.98;107490;1257;60270;-39
2023/06/20 03:48:44;;;;;;;16.40;14.50;;;;;;;17.82;76.72;99378.40;107561;1254;73854;-38
2023/06/20 03:51:12;;;;;;;15.30;13.50;;;;;;;17.84;76.63;99392.02;107505;1254;66289;-39
2023/06/20 03:53:40;;;;;;;17.30;13.70;;;;;;;17.86;76.64;99393.50;107525;1254;72693;-39
2023/06/20 03:56:08;;;;;;;16.70;14.90;;;;;;;17.91;76.53;99381.38;107542;1254;60245;-40
2023/06/20 03:58:36;;;;;;;16.30;14.70;;;;;;;17.91;76.59;99377.92;107581;1257;60341;-40
2023/06/20 04:01:06;;;;;;;18.00;15.90;;;;;;;17.94;76.82;99382.35;107501;1255;73530;-40
2023/06/20 04:03:34;;;;;;;16.40;14.80;;;;;;;17.96;76.75;99384.52;107527;1253;66799;-40
2023/06/20 04:06:04;;;;;;;16.20;14.40;;;;;;;18.00;77.07;99386.54;107620;1254;71387;-40
2023/06/20 04:08:31;;;;;;;18.30;14.80;;;;;;;18.12;77.26;99388.83;107530;1254;60457;-40
2023/06/20 04:10:59;;;;;;;17.00;15.30;;;;;;;18.26;77.30;99392.42;107506;1257;60553;-40
2023/06/20 04:13:28;;;;;;;17.20;15.50;;;;;;;18.39;76.99;99396.52;107266;1256;74294;-40
2023/06/20 04:15:55;;;;;;;17.40;15.30;;;;;;;18.46;76.63;99396.66;107383;1254;66772;-40
2023/06/20 04:18:23;;;;;;;16.40;14.80;;;;;;;18.52;76.58;99394.08;107221;1258;71528;-40
2023/06/20 04:20:51;;;;;;;16.90;14.90;;;;;;;18.63;76.41;99398.83;107255;1260;60359;-40
2023/06/20 04:23:19;;;;;;;17.20;14.90;;;;;;;18.72;75.98;99398.08;107336;1255;60380;-40
2023/06/20 04:25:46;;;;;;;17.30;15.50;;;;;;;18.78;75.78;99403.23;107303;1260;72646;-40
2023/06/20 04:28:17;;;;;;;17.20;15.40;;;;;;;18.84;75.68;99404.75;107294;1260;65401;-40
2023/06/20 04:30:55;;;;;;;22.40;15.30;;;;;;;18.88;75.42;99407.50;107251;1259;71434;-40
2023/06/20 04:33:23;;;;;;;16.50;14.90;;;;;;;18.91;75.42;99410.21;107362;1256;60454;-40
2023/06/20 04:35:57;;;;;;;16.70;15.00;;;;;;;18.99;75.42;99409.07;107374;1255;60327;-40
2023/06/20 04:38:30;;;;;;;20.50;15.50;;;;;;;19.08;75.26;99411.85;107255;1259;72648;-40
2023/06/20 04:41:00;;;;;;;18.70;15.80;;;;;;;19.12;75.25;99411.70;107362;1257;65843;-40
2023/06/20 04:43:28;;;;;;;20.50;14.80;;;;;;;19.17;75.36;99412.58;107202;1257;71095;-40
2023/06/20 04:45:56;;;;;;;17.30;15.20;;;;;;;19.23;75.10;99411.63;107183;1261;60448;-40
2023/06/20 04:48:35;;;;;;;17.40;15.60;;;;;;;19.29;74.72;99413.10;107292;1257;60334;-38
2023/06/20 04:51:07;;;;;;;19.70;15.90;;;;;;;19.29;74.84;99415.22;107314;1254;72608;-38
2023/06/20 04:53:36;;;;;;;19.40;16.10;;;;;;;19.27;74.84;99418.39;107231;1254;67566;-39
2023/06/20 04:56:04;;;;;;;17.10;15.40;;;;;;;19.27;74.94;99425.22;107192;1260;72686;-39
2023/06/20 04:58:31;;;;;;;17.40;15.60;;;;;;;19.28;75.17;99427.25;107357;1254;60373;-39
2023/06/20 05:00:59;;;;;;;17.70;15.10;;;;;;;19.36;75.53;99433.81;107358;1257;60249;-39
2023/06/20 05:03:27;;;;;;;17.60;15.90;;;;;;;19.45;75.18;99433.77;107300;1260;72615;-39
2023/06/20 05:05:56;;;;;;;18.30;16.40;;;;;;;19.52;74.73;99431.69;107248;1254;66444;-39
2023/06/20 05:08:23;;;;;;;19.60;15.70;;;;;;;19.56;74.47;99432.98;107361;1257;71710;-39
2023/06/20 05:10:51;;;;;;;17.40;15.60;;;;;;;19.58;74.74;99430.34;107272;1255;61687;-39
2023/06/20 05:13:18;;;;;;;18.50;14.30;;;;;;;19.64;74.82;99429.53;107539;1253;60489;-40
2023/06/20 05:15:46;;;;;;;21.10;16.00;;;;;;;19.73;74.35;99428.67;107505;1254;73891;-40
2023/06/20 05:18:14;;;;;;;18.80;16.10;;;;;;;19.81;74.44;99425.70;107620;1254;66582;-39
2023/06/20 05:20:42;;;;;;;18.70;16.80;;;;;;;19.91;74.41;99428.27;107514;1254;72696;-39
2023/06/20 05:23:09;;;;;;;17.90;16.10;;;;;;;19.98;73.98;99431.30;107514;1254;60454;-40
2023/06/20 05:25:37;;;;;;;17.40;14.60;;;;;;;20.09;74.13;99432.13;107512;1254;60488;-39
2023/06/20 05:28:05;;;;;;;17.30;15.20;;;;;;;20.22;73.97;99431.55;107542;1254;73954;-39
2023/06/20 05:30:33;;;;;;;18.00;16.20;;;;;;;20.37;73.68;99425.23;107486;1254;66263;-40
2023/06/20 05:33:01;;;;;;;19.00;16.80;;;;;;;20.51;73.20;99428.50;107537;1257;73178;-40
2023/06/20 05:35:29;;;;;;;19.00;15.60;;;;;;;20.62;72.93;99428.20;107506;1257;61728;-39
2023/06/20 05:37:56;;;;;;;17.70;15.80;;;;;;;20.75;72.59;99431.94;107543;1255;60415;-39
2023/06/20 05:40:24;;;;;;;18.90;15.00;;;;;;;20.91;72.40;99430.80;107514;1257;73923;-40
2023/06/20 05:42:52;;;;;;;17.40;15.80;;;;;;;21.05;71.80;99431.60;107495;1254;67617;-41
2023/06/20 05:45:21;;;;;;;19.10;15.40;;;;;;;21.15;71.51;99426.98;107514;1254;72669;-40
2023/06/20 05:47:48;;;;;;;19.60;16.30;;;;;;;21.22;70.99;99424.71;107446;1254;60411;-39
2023/06/20 05:50:16;;;;;;;16.80;15.10;;;;;;;21.33;70.52;99421.46;107404;1254;60403;-39
2023/06/20 05:52:43;;;;;;;17.20;15.40;;;;;;;21.44;69.92;99423.30;107401;1257;73833;-39
2023/06/20 05:55:11;;;;;;;18.20;14.80;;;;;;;21.57;69.17;99420.23;107518;1254;68184;-39
2023/06/20 05:57:39;;;;;;;16.70;15.00;;;;;;;21.64;68.50;99420.52;107417;1253;72708;-40
2023/06/20 06:00:12;;;;;;;16.00;14.30;;;;;;;21.69;68.88;99422.38;107417;1257;60479;-40
2023/06/20 06:02:46;;;;;;;17.10;15.30;;;;;;;21.74;68.52;99426.19;107683;1252;60279;-39
2023/06/20 06:05:13;;;;;;;17.20;15.50;;;;;;;21.80;68.92;99425.73;107578;1254;73832;-39
2023/06/20 06:07:41;;;;;;;16.40;14.80;;;;;;;21.89;69.09;99425.48;107679;1254;68030;-40
2023/06/20 06:10:09;;;;;;;16.60;14.40;;;;;;;22.02;69.07;99423.11;107646;1254;72668;-40
2023/06/20 06:12:37;;;;;;;17.10;15.30;;;;;;;22.15;67.25;99424.13;107598;1255;59663;-40
2023/06/20 06:15:05;;;;;;;17.80;15.30;;;;;;;22.16;66.78;99421.18;107561;1253;60337;-39
2023/06/20 06:17:33;;;;;;;16.40;14.10;;;;;;;22.13;67.39;99421.10;107677;1254;73857;-40
2023/06/20 06:20:01;;;;;;;17.90;14.50;;;;;;;22.15;66.47;99418.98;107503;1254;67877;-40
2023/06/20 06:22:28;;;;;;;14.90;13.40;;;;;;;22.19;66.44;99424.40;107600;1256;72657;-39
2023/06/20 06:24:56;;;;;;;15.80;14.20;;;;;;;22.27;66.06;99424.83;107523;1254;60485;-40
2023/06/20 06:27:24;;;;;;;16.30;14.50;;;;;;;22.33;65.36;99427.95;107540;1254;59289;-40
2023/06/20 06:29:51;;;;;;;16.50;14.70;;;;;;;22.32;64.47;99424.57;107504;1254;73886;-40
2023/06/20 06:32:20;;;;;;;17.10;15.30;;;;;;;22.32;64.60;99429.66;107515;1257;68527;-40
2023/06/20 06:34:49;;;;;;;16.10;14.60;;;;;;;22.30;64.86;99427.48;107467;1254;71477;-39
2023/06/20 06:37:16;;;;;;;17.60;14.50;;;;;;;22.32;64.04;99425.30;107675;1253;60852;-39
2023/06/20 06:39:44;;;;;;;16.00;14.20;;;;;;;22.38;63.06;99419.14;107531;1254;59345;-39
2023/06/20 06:42:12;;;;;;;15.70;14.00;;;;;;;22.45;63.14;99421.39;107592;1254;73824;-40
2023/06/20 06:44:40;;;;;;;16.00;14.20;;;;;;;22.51;62.85;99423.81;107450;1254;66329;-40
2023/06/20 06:47:08;;;;;;;19.70;14.70;;;;;;;22.61;62.60;99418.80;107346;1259;70805;-40
2023/06/20 06:49:36;;;;;;;16.80;13.70;;;;;;;22.70;62.32;99411.14;107609;1254;60300;-40
2023/06/20 06:52:04;;;;;;;18.00;15.70;;;;;;;22.78;62.39;99406.53;107538;1254;60307;-40
2023/06/20 06:54:32;;;;;;;15.80;14.20;;;;;;;22.89;62.05;99404.95;107552;1253;72597;-40
2023/06/20 06:56:59;;;;;;;16.80;14.70;;;;;;;23.01;62.17;99405.30;107508;1254;67592;-40
2023/06/20 06:59:27;;;;;;;17.00;15.10;;;;;;;23.15;62.24;99406.69;107492;1257;71406;-40
2023/06/20 07:01:54;;;;;;;15.90;14.20;;;;;;;23.29;61.16;99406.62;107453;1254;60466;-40
2023/06/20 07:04:22;;;;;;;15.40;13.70;;;;;;;23.41;59.62;99402.84;107602;1254;60504;-40
2023/06/20 07:06:50;;;;;;;15.30;13.70;;;;;;;23.48;59.90;99403.20;107535;1254;73864;-40
2023/06/20 07:09:17;;;;;;;15.20;13.70;;;;;;;23.53;59.09;99401.52;107634;1253;66782;-39
2023/06/20 07:11:45;;;;;;;16.60;14.90;;;;;;;23.61;58.76;99403.23;107489;1254;71403;-40
2023/06/20 07:14:13;;;;;;;16.40;14.70;;;;;;;23.70;57.88;99393.90;107478;1254;60492;-39
2023/06/20 07:16:41;;;;;;;16.40;13.40;;;;;;;23.78;57.33;99394.51;107473;1254;60575;-40
2023/06/20 07:19:29;;;;;;;18.10;15.20;;;;;;;23.82;56.81;99391.91;107481;1254;73867;-39
2023/06/20 07:21:56;;;;;;;15.40;13.80;;;;;;;23.87;57.18;99391.92;107478;1254;67298;-40
2023/06/20 07:24:24;;;;;;;16.30;14.70;;;;;;;23.99;56.59;99394.66;107587;1254;72681;-40
2023/06/20 07:26:52;;;;;;;18.00;14.60;;;;;;;24.09;56.81;99393.42;107468;1255;60383;-40
2023/06/20 07:29:23;;;;;;;15.70;14.10;;;;;;;24.21;56.92;99391.36;107580;1253;60427;-41
2023/06/20 07:31:53;;;;;;;16.70;14.30;;;;;;;24.35;56.81;99389.43;107410;1254;74198;-40
2023/06/20 07:34:21;;;;;;;15.20;13.70;;;;;;;24.48;56.44;99389.58;107455;1254;67676;-40
2023/06/20 07:36:48;;;;;;;16.00;14.40;;;;;;;24.57;55.35;99386.15;107633;1254;71454;-40
2023/06/20 07:39:16;;;;;;;16.10;14.30;;;;;;;24.64;55.51;99387.23;107472;1253;60181;-39
2023/06/20 07:41:44;;;;;;;15.20;13.80;;;;;;;24.74;55.11;99385.56;107533;1254;60265;-40
2023/06/20 07:44:11;;;;;;;15.20;13.40;;;;;;;24.83;54.40;99383.87;107668;1254;73878;-40
2023/06/20 07:46:39;;;;;;;19.40;13.80;;;;;;;24.91;54.09;99379.79;107417;1254;66809;-39
2023/06/20 07:49:07;;;;;;;15.30;13.80;;;;;;;25.02;53.93;99379.67;107507;1254;72647;-40
2023/06/20 07:51:36;;;;;;;17.10;15.20;;;;;;;25.11;54.27;99380.02;107533;1254;60287;-40
2023/06/20 07:54:04;;;;;;;14.80;13.40;;;;;;;25.20;54.16;99377.66;107607;1254;60603;-40
2023/06/20 07:56:32;;;;;;;16.90;14.60;;;;;;;25.30;54.06;99375.45;107459;1257;74315;-40
2023/06/20 07:59:00;;;;;;;15.30;13.80;;;;;;;25.41;53.76;99376.83;107519;1254;67905;-40
2023/06/20 08:01:28;;;;;;;14.70;13.20;;;;;;;25.50;52.77;99374.94;107502;1254;72698;-40
2023/06/20 08:03:55;;;;;;;14.90;13.40;;;;;;;25.57;52.21;99376.42;107481;1252;60411;-40
2023/06/20 08:06:23;;;;;;;15.50;13.10;;;;;;;25.64;52.59;99377.17;107592;1254;60441;-40
2023/06/20 08:08:51;;;;;;;15.30;13.50;;;;;;;25.70;51.24;99375.42;107477;1252;73857;-40
2023/06/20 08:11:25;;;;;;;15.50;13.20;;;;;;;25.70;51.19;99378.75;107634;1254;66668;-40
2023/06/20 08:13:52;;;;;;;14.50;13.00;;;;;;;25.73;51.75;99382.73;107421;1253;72696;-40
2023/06/20 08:16:20;;;;;;;14.80;13.30;;;;;;;25.81;51.23;99380.95;107404;1257;60290;-40
2023/06/20 08:18:48;;;;;;;13.80;12.40;;;;;;;25.88;50.94;99379.29;107464;1253;60041;-40
2023/06/20 08:21:15;;;;;;;14.70;13.10;;;;;;;26.00;50.94;99379.91;107538;1254;74067;-40
2023/06/20 08:23:45;;;;;;;13.90;12.60;;;;;;;26.12;50.27;99378.73;107500;1254;67614;-40
2023/06/20 08:26:13;;;;;;;13.30;12.00;;;;;;;26.22;49.26;99378.52;107640;1254;72716;-40
2023/06/20 08:28:41;;;;;;;17.30;13.20;;;;;;;26.30;48.84;99377.16;107491;1254;60536;-40
2023/06/20 08:31:08;;;;;;;13.30;12.10;;;;;;;26.33;49.27;99377.95;107665;1257;60480;-40
2023/06/20 08:33:36;;;;;;;14.40;12.90;;;;;;;26.36;48.49;99372.73;107655;1254;73913;-39
2023/06/20 08:36:04;;;;;;;14.30;12.90;;;;;;;26.43;49.19;99376.02;107632;1254;66752;-39
2023/06/20 08:38:32;;;;;;;14.50;13.00;;;;;;;26.53;49.44;99378.60;107493;1259;72688;-40
2023/06/20 08:41:01;;;;;;;14.30;12.80;;;;;;;26.61;49.33;99377.70;107463;1254;60425;-39
2023/06/20 08:43:29;;;;;;;14.40;13.00;;;;;;;26.71;48.49;99377.27;107470;1253;60545;-40
2023/06/20 08:45:57;;;;;;;13.60;12.20;;;;;;;26.77;48.76;99376.79;107448;1254;73880;-39
2023/06/20 08:48:25;;;;;;;14.60;13.10;;;;;;;26.87;48.54;99382.80;107460;1254;66790;-39
2023/06/20 08:50:52;;;;;;;13.00;11.80;;;;;;;26.95;47.61;99378.13;107443;1253;72671;-40
2023/06/20 08:53:20;;;;;;;14.70;13.20;;;;;;;27.01;47.59;99378.30;107450;1254;60456;-40
2023/06/20 08:55:51;;;;;;;13.30;12.00;;;;;;;27.12;47.78;99374.85;107448;1253;60090;-40
2023/06/20 08:58:21;;;;;;;13.70;12.30;;;;;;;27.26;47.52;99375.81;107510;1254;72003;-40
2023/06/20 09:00:49;;;;;;;15.00;11.90;;;;;;;27.41;47.16;99378.98;107536;1254;67130;-40
2023/06/20 09:03:23;;;;;;;12.80;11.40;;;;;;;27.52;45.95;99378.79;107436;1257;72654;-41
2023/06/20 09:05:51;;;;;;;13.60;12.20;;;;;;;27.60;45.43;99376.09;107484;1254;62715;-41
2023/06/20 09:08:19;;;;;;;13.70;12.20;;;;;;;27.71;45.89;99374.23;107465;1254;60419;-41
2023/06/20 09:10:47;;;;;;;13.30;12.00;;;;;;;27.86;45.69;99376.91;107528;1256;72687;-40
2023/06/20 09:13:14;;;;;;;13.20;11.10;;;;;;;27.96;44.57;99374.44;107340;1254;66801;-40
2023/06/20 09:15:42;;;;;;;13.30;11.80;;;;;;;28.00;43.24;99372.17;107381;1254;71423;-41
2023/06/20 09:18:12;;;;;;;13.60;12.10;;;;;;;27.96;43.39;99371.29;107448;1254;60931;-40
2023/06/20 09:20:42;;;;;;;12.60;11.20;;;;;;;27.88;44.06;99372.19;109356;1252;59179;-41
2023/06/20 09:23:11;;;;;;;12.60;11.40;;;;;;;27.87;43.90;99370.18;109406;1253;72620;-42
2023/06/20 09:25:40;;;;;;;14.30;12.20;;;;;;;27.93;44.67;99374.21;109324;1253;67888;-42
2023/06/20 09:30:48;;;;;;;12.60;11.30;;;;;;;28.09;43.68;99373.10;104242;1290;600321;-40
2023/06/20 09:33:17;;;;;;;13.40;11.80;;;;;;;28.18;43.00;99369.14;106593;1270;59100;-40
2023/06/20 09:35:45;;;;;;;13.30;11.80;;;;;;;28.25;43.23;99371.05;106672;1265;59308;-40
2023/06/20 09:38:12;;;;;;;13.40;12.00;;;;;;;28.32;43.99;99370.20;106683;1266;72270;-40
2023/06/20 09:40:44;;;;;;;12.90;11.60;;;;;;;28.43;43.17;99370.30;106679;1269;67892;-40
2023/06/20 09:43:12;;;;;;;13.90;11.70;;;;;;;28.50;42.45;99365.25;106484;1266;194056;-42
2023/06/20 09:45:39;;;;;;;13.30;11.80;;;;;;;28.52;42.84;99362.03;106596;1263;60072;-40
2023/06/20 09:48:08;;;;;;;12.90;11.60;;;;;;;28.60;43.13;99359.37;106664;1264;59402;-39
2023/06/20 09:50:37;;;;;;;12.90;11.60;;;;;;;28.68;42.26;99358.05;106815;1264;71025;-40
2023/06/20 09:53:16;;;;;;;13.00;11.70;;;;;;;28.72;42.64;99354.82;106825;1267;68048;-40
2023/06/20 09:55:44;;;;;;;12.40;11.10;;;;;;;28.77;42.40;99351.67;106764;1265;72675;-40
2023/06/20 09:58:12;;;;;;;12.90;11.70;;;;;;;28.87;42.86;99351.88;106652;1265;59544;-40
2023/06/20 10:00:39;;;;;;;12.80;11.60;;;;;;;29.03;42.89;99352.36;106649;1265;59524;-40
2023/06/20 10:03:09;;;;;;;12.50;11.20;;;;;;;29.12;41.13;99350.11;106697;1266;72054;-40
2023/06/20 10:05:37;;;;;;;12.70;11.50;;;;;;;29.11;42.25;99349.49;106669;1268;66666;-41
2023/06/20 10:08:04;;;;;;;12.70;11.40;;;;;;;29.16;42.10;99348.80;106797;1264;72652;-40
2023/06/20 10:10:32;;;;;;;13.10;10.60;;;;;;;29.23;41.77;99345.08;106660;1268;60045;-41
2023/06/20 10:13:01;;;;;;;11.90;10.70;;;;;;;29.28;40.52;99343.48;106711;1263;59577;-42
2023/06/20 10:15:29;;;;;;;12.60;9.90;;;;;;;29.32;40.57;99344.63;106720;1266;72384;-41
2023/06/20 10:17:57;;;;;;;11.30;10.10;;;;;;;29.40;40.16;99349.36;106770;1267;66332;-41
2023/06/20 10:20:26;;;;;;;12.10;10.80;;;;;;;29.49;39.50;99346.07;106600;1263;71461;-41
2023/06/20 10:22:58;;;;;;;12.10;9.90;;;;;;;29.58;39.57;99344.80;106667;1266;60062;-41
2023/06/20 10:25:26;;;;;;;11.10;9.90;;;;;;;29.68;38.53;99342.55;106685;1265;59531;-41
2023/06/20 10:28:09;;;;;;;12.40;10.20;;;;;;;29.81;38.96;99346.66;106637;1266;72888;-41
2023/06/20 10:30:58;;;;;;;12.10;10.90;;;;;;;29.97;38.94;99341.88;106666;1264;67567;-41
2023/06/20 10:33:30;;;;;;;11.60;10.40;;;;;;;30.12;38.69;99341.79;106743;1266;72696;-41
2023/06/20 10:36:07;;;;;;;11.30;10.20;;;;;;;30.18;38.40;99339.25;106777;1266;60510;-41
2023/06/20 10:38:40;;;;;;;14.50;10.60;;;;;;;30.29;38.33;99335.34;106766;1266;59324;-41
2023/06/20 10:41:22;;;;;;;11.70;10.60;;;;;;;30.45;37.74;99334.77;106726;1263;73090;-41
2023/06/20 10:43:54;;;;;;;10.70;9.60;;;;;;;30.59;38.11;99337.45;106721;1265;66755;-41
2023/06/20 10:46:27;;;;;;;11.90;10.70;;;;;;;30.68;37.74;99335.84;106826;1263;72814;-41
2023/06/20 10:48:55;;;;;;;11.30;10.30;;;;;;;30.57;37.10;99332.04;106703;1263;59745;-41
2023/06/20 10:51:23;;;;;;;11.30;10.20;;;;;;;30.37;36.93;99329.77;106713;1263;60169;-41
2023/06/20 10:53:50;;;;;;;11.50;10.50;;;;;;;30.20;38.06;99332.40;106792;1263;73030;-41
2023/06/20 10:56:25;;;;;;;12.20;11.00;;;;;;;30.06;37.69;99330.95;106789;1264;68085;-41
2023/06/20 10:58:53;;;;;;;11.00;10.00;;;;;;;29.86;37.87;99332.19;106925;1263;72697;-41
2023/06/20 11:01:25;;;;;;;11.60;10.40;;;;;;;29.64;38.63;99330.52;106672;1266;59592;-40
2023/06/20 11:03:53;;;;;;;11.00;9.90;;;;;;;29.60;38.70;99327.06;106663;1266;60086;-41
2023/06/20 11:06:21;;;;;;;14.00;11.10;;;;;;;29.70;38.51;99323.83;106729;1266;72834;-41
2023/06/20 11:08:48;;;;;;;11.40;9.70;;;;;;;29.87;38.58;99318.93;106632;1264;66836;-41
2023/06/20 11:11:16;;;;;;;10.90;9.90;;;;;;;30.09;38.66;99317.40;106681;1264;72808;-41
2023/06/20 11:13:43;;;;;;;13.80;10.90;;;;;;;30.34;38.51;99313.48;106782;1264;59459;-41
2023/06/20 11:16:18;;;;;;;13.20;10.70;;;;;;;30.52;37.83;99309.67;106690;1268;60950;-41
2023/06/20 11:18:46;;;;;;;12.00;10.40;;;;;;;30.62;36.94;99302.67;106807;1266;72303;-41
2023/06/20 11:21:15;;;;;;;10.50;9.50;;;;;;;30.62;37.57;99302.37;106721;1263;67892;-41